Time;durP1;ratioP1;P1;durP2;ratioP2;P2;SDS_P1;SDS_P2;PMS_P1;PMS_P2;Temp;Humidity;BMP_temperature;BMP_pressure;BME280_temperature;BME280_humidity;BME280_pressure;Samples;Min_cycle;Max_cycle;Signal;HPM_P1;HPM_P2
2021/10/09 00:02:05;;;;;;;11.82;6.03;;;;;;;7.77;57.22;101380.31;5132379;27;20497;-70
2021/10/09 00:04:34;;;;;;;10.88;4.78;;;;;;;7.64;57.44;101377.16;5132501;27;20170;-69
2021/10/09 00:07:02;;;;;;;13.18;5.20;;;;;;;7.54;58.26;101380.13;5132157;27;20043;-70
2021/10/09 00:09:30;;;;;;;16.10;5.00;;;;;;;7.51;57.78;101373.09;5132442;27;20043;-70
2021/10/09 00:11:58;;;;;;;13.40;5.10;;;;;;;7.48;58.42;101375.88;5132100;27;20544;-70
2021/10/09 00:14:27;;;;;;;9.75;4.75;;;;;;;7.47;57.78;101364.38;5132633;27;20045;-71
2021/10/09 00:16:55;;;;;;;13.98;4.80;;;;;;;7.54;57.80;101367.72;5132055;28;20078;-71
2021/10/09 00:19:25;;;;;;;13.52;5.18;;;;;;;7.38;58.91;101363.78;5132873;28;20122;-71
2021/10/09 00:21:53;;;;;;;14.93;5.68;;;;;;;7.29;59.11;101367.56;5132359;27;20507;-71
2021/10/09 00:24:21;;;;;;;15.60;5.18;;;;;;;7.35;58.86;101364.75;5132148;27;20042;-71
2021/10/09 00:26:49;;;;;;;13.88;5.55;;;;;;;7.34;58.66;101362.13;5131139;28;20051;-75
2021/10/09 00:29:18;;;;;;;14.98;4.40;;;;;;;7.40;58.65;101367.25;5132384;28;20039;-71
2021/10/09 00:31:46;;;;;;;11.65;4.78;;;;;;;7.20;59.57;101370.47;5131986;28;20060;-70
2021/10/09 00:34:14;;;;;;;18.42;5.07;;;;;;;7.27;59.03;101373.84;5132100;28;20348;-70
2021/10/09 00:36:43;;;;;;;12.77;5.38;;;;;;;7.27;59.10;101368.53;5132259;28;20046;-70
2021/10/09 00:39:11;;;;;;;16.65;5.25;;;;;;;7.31;58.85;101363.06;5131792;27;20092;-70
2021/10/09 00:41:40;;;;;;;11.23;4.68;;;;;;;7.28;59.09;101363.19;5134502;27;20352;-70
2021/10/09 00:44:10;;;;;;;10.80;5.18;;;;;;;7.20;59.29;101357.22;5135821;27;20138;-70
2021/10/09 00:46:39;;;;;;;15.75;5.50;;;;;;;7.22;59.33;101350.06;5136065;27;20065;-71
2021/10/09 00:49:14;;;;;;;15.15;5.07;;;;;;;7.17;59.54;101357.31;5135717;27;20035;-72
2021/10/09 00:51:44;;;;;;;11.07;4.57;;;;;;;7.10;60.08;101359.25;5136441;27;20365;-70
2021/10/09 00:54:15;;;;;;;13.13;5.13;;;;;;;7.12;59.81;101353.91;5135899;27;20043;-70
2021/10/09 00:56:44;;;;;;;18.27;5.70;;;;;;;7.03;60.35;101356.81;5134716;27;20070;-71
2021/10/09 00:59:14;;;;;;;10.82;5.38;;;;;;;7.02;60.69;101361.25;5135503;27;20067;-71
2021/10/09 01:01:43;;;;;;;15.48;5.20;;;;;;;7.05;60.42;101365.63;5136004;27;20130;-71
2021/10/09 01:04:12;;;;;;;12.52;5.15;;;;;;;6.94;60.48;101365.03;5135475;27;20123;-70
2021/10/09 01:06:40;;;;;;;11.32;5.10;;;;;;;6.92;60.62;101365.06;5136090;27;20039;-70
2021/10/09 01:09:09;;;;;;;13.43;5.18;;;;;;;6.94;60.49;101365.03;5135789;27;20043;-72
2021/10/09 01:11:38;;;;;;;15.90;4.68;;;;;;;6.92;60.56;101364.22;5135670;27;20077;-72
2021/10/09 01:14:07;;;;;;;14.32;5.47;;;;;;;6.92;60.28;101364.22;5135358;27;20098;-72
2021/10/09 01:16:35;;;;;;;11.60;4.65;;;;;;;6.94;60.34;101362.38;5135572;27;20039;-72
2021/10/09 01:19:06;;;;;;;14.68;5.45;;;;;;;6.79;60.96;101361.03;5135369;27;20116;-72
2021/10/09 01:21:43;;;;;;;13.25;5.30;;;;;;;6.57;61.68;101358.94;5135428;27;20125;-72
2021/10/09 01:24:12;;;;;;;15.48;6.20;;;;;;;6.60;61.90;101358.00;5135276;27;20057;-72
2021/10/09 01:26:43;;;;;;;13.57;5.32;;;;;;;6.55;62.04;101359.88;5135536;27;20479;-72
2021/10/09 01:29:14;;;;;;;17.70;5.57;;;;;;;6.57;61.60;101363.38;5134829;27;20396;-72
2021/10/09 01:31:42;;;;;;;14.52;5.45;;;;;;;6.44;62.41;101361.94;5135277;27;20107;-72
2021/10/09 01:34:10;;;;;;;14.63;5.57;;;;;;;6.49;61.76;101371.53;5135068;27;20051;-72
2021/10/09 01:36:42;;;;;;;13.13;5.57;;;;;;;6.31;62.76;101372.84;5135249;27;20043;-72
2021/10/09 01:39:15;;;;;;;16.50;5.80;;;;;;;6.31;62.76;101367.56;5134709;27;20865;-72
2021/10/09 01:41:45;;;;;;;14.13;5.45;;;;;;;6.34;62.49;101360.44;5135757;27;20066;-72
2021/10/09 01:44:17;;;;;;;13.25;5.53;;;;;;;6.36;62.06;101364.78;5134983;27;20530;-72
2021/10/09 01:46:46;;;;;;;12.52;5.45;;;;;;;6.40;62.15;101366.47;5135183;27;20592;-72
2021/10/09 01:49:14;;;;;;;15.40;6.00;;;;;;;6.50;61.53;101367.09;5134805;27;20838;-71
2021/10/09 01:51:43;;;;;;;16.38;5.43;;;;;;;6.53;61.46;101367.00;5134336;27;20090;-71
2021/10/09 01:54:12;;;;;;;10.23;5.28;;;;;;;6.41;61.74;101372.63;5134046;27;20050;-70
2021/10/09 01:56:40;;;;;;;13.23;5.38;;;;;;;6.46;61.40;101370.72;5135057;27;20472;-70
2021/10/09 01:59:08;;;;;;;12.15;5.38;;;;;;;6.43;61.92;101362.84;5134535;27;20047;-73
2021/10/09 02:01:36;;;;;;;12.57;5.18;;;;;;;6.45;62.09;101369.84;5133864;27;20043;-73
2021/10/09 02:04:05;;;;;;;17.52;6.25;;;;;;;6.35;62.24;101362.16;5134318;27;20131;-72
2021/10/09 02:06:33;;;;;;;13.70;5.38;;;;;;;6.42;62.47;101366.41;5134780;27;20043;-73
2021/10/09 02:09:03;;;;;;;14.13;5.60;;;;;;;6.32;62.63;101360.47;5134365;27;20468;-74
2021/10/09 02:11:37;;;;;;;13.40;5.30;;;;;;;6.05;64.15;101369.97;5134629;27;20119;-71
2021/10/09 02:14:13;;;;;;;13.77;5.57;;;;;;;5.93;65.23;101364.97;5134466;27;20047;-72
2021/10/09 02:25:13;;;;;;;12.82;5.32;;;;;;;5.83;66.10;101364.25;5134095;27;20039;-73
2021/10/09 02:27:41;;;;;;;19.05;6.03;;;;;;;5.87;66.16;101362.41;5134544;27;20045;-71
2021/10/09 02:30:10;;;;;;;14.95;5.90;;;;;;;5.97;65.07;101362.19;5133973;27;20100;-73
2021/10/09 02:32:38;;;;;;;15.80;6.10;;;;;;;6.00;65.05;101363.91;5134407;27;20047;-73
2021/10/09 02:35:08;;;;;;;16.42;5.68;;;;;;;6.16;64.50;101365.28;5133660;27;20039;-73
2021/10/09 02:37:40;;;;;;;16.48;5.13;;;;;;;6.29;64.18;101364.09;5133976;27;20043;-73
2021/10/09 02:40:13;;;;;;;13.98;5.18;;;;;;;6.14;64.96;101366.22;5133615;27;20051;-72
2021/10/09 02:42:42;;;;;;;13.50;5.00;;;;;;;6.13;65.44;101362.69;5134089;27;20046;-70
2021/10/09 02:45:10;;;;;;;14.70;5.32;;;;;;;6.06;65.84;101362.88;5133766;27;20043;-70
2021/10/09 02:47:38;;;;;;;17.02;5.65;;;;;;;5.93;66.47;101355.22;5133804;27;20047;-74
2021/10/09 02:50:11;;;;;;;12.02;5.47;;;;;;;5.82;67.79;101359.00;5133347;27;20047;-75
2021/10/09 02:52:39;;;;;;;11.27;4.72;;;;;;;5.61;68.32;101355.06;5133804;27;20092;-74
2021/10/09 02:55:09;;;;;;;12.30;5.15;;;;;;;5.75;67.60;101350.31;5133477;27;20047;-72
2021/10/09 02:57:39;;;;;;;14.38;5.25;;;;;;;5.68;68.10;101361.94;5134114;27;20126;-71
2021/10/09 03:00:09;;;;;;;20.42;5.97;;;;;;;5.73;67.00;101358.31;5133293;27;20443;-71
2021/10/09 03:02:38;;;;;;;13.90;5.88;;;;;;;5.60;68.13;101362.16;5133668;27;20043;-72
2021/10/09 03:05:12;;;;;;;13.68;5.38;;;;;;;5.68;67.42;101354.88;5133082;27;20100;-75
2021/10/09 03:07:41;;;;;;;10.05;5.40;;;;;;;5.58;67.67;101363.06;5133457;27;20035;-75
2021/10/09 03:10:11;;;;;;;17.48;5.43;;;;;;;5.42;68.30;101354.59;5132793;27;20054;-77
2021/10/09 03:12:41;;;;;;;14.88;5.88;;;;;;;5.51;67.37;101362.34;5133479;27;20449;-77
2021/10/09 03:15:11;;;;;;;14.35;5.93;;;;;;;5.52;67.26;101364.09;5132877;27;20043;-77
2021/10/09 03:17:40;;;;;;;15.13;5.50;;;;;;;5.46;66.42;101362.44;5133569;27;20050;-76
2021/10/09 03:20:11;;;;;;;13.15;5.13;;;;;;;5.47;67.17;101358.00;5132936;27;20446;-77
2021/10/09 03:22:40;;;;;;;17.58;5.57;;;;;;;5.56;66.68;101359.59;5133154;27;20059;-77
2021/10/09 03:25:10;;;;;;;13.65;5.30;;;;;;;5.49;66.82;101357.97;5132830;27;20129;-75
2021/10/09 03:27:40;;;;;;;14.13;5.25;;;;;;;5.59;66.48;101365.66;5132723;27;20054;-75
2021/10/09 03:30:09;;;;;;;11.68;5.00;;;;;;;5.49;66.98;101361.47;5132789;27;20054;-75
2021/10/09 03:32:38;;;;;;;13.75;5.35;;;;;;;5.42;67.54;101357.25;5132988;27;20096;-75
2021/10/09 03:35:08;;;;;;;13.85;5.25;;;;;;;5.46;66.88;101362.44;5132507;27;20040;-75
2021/10/09 03:37:37;;;;;;;12.43;5.00;;;;;;;5.35;67.78;101364.44;5132936;27;20062;-74
2021/10/09 03:40:09;;;;;;;12.98;5.82;;;;;;;5.22;68.18;101359.44;5132561;27;20050;-75
2021/10/09 03:42:42;;;;;;;10.50;4.82;;;;;;;5.29;68.37;101369.84;5133118;27;20111;-75
2021/10/09 03:45:15;;;;;;;15.20;5.33;;;;;;;5.27;68.37;101365.50;5132728;27;20043;-75
2021/10/09 03:47:53;;;;;;;12.93;5.78;;;;;;;5.23;68.50;101372.63;5133005;27;20039;-74
2021/10/09 03:52:20;;;;;;;12.70;4.93;;;;;;;5.22;69.24;101370.03;5132416;27;20401;-74
2021/10/09 03:53:10;;;;;;;15.02;5.20;;;;;;;5.23;69.17;101366.47;5132834;27;20047;-75
2021/10/09 03:55:38;;;;;;;17.83;5.45;;;;;;;5.21;69.04;101369.16;5132694;27;20043;-74
2021/10/09 03:58:08;;;;;;;13.38;5.13;;;;;;;5.17;68.93;101363.03;5132333;27;20043;-74
2021/10/09 04:00:40;;;;;;;12.48;5.60;;;;;;;5.05;69.11;101362.41;5132695;27;20043;-76
2021/10/09 04:03:08;;;;;;;10.32;5.38;;;;;;;5.05;68.87;101373.88;5132273;27;20123;-76
2021/10/09 04:05:37;;;;;;;12.65;5.50;;;;;;;5.12;68.37;101364.91;5132945;27;20039;-75
2021/10/09 04:08:07;;;;;;;12.98;5.22;;;;;;;5.05;67.87;101371.22;5132448;27;20072;-76
2021/10/09 04:10:36;;;;;;;15.35;4.97;;;;;;;5.08;66.99;101371.16;5132438;28;20043;-76
2021/10/09 04:13:05;;;;;;;15.80;5.50;;;;;;;5.22;65.92;101370.03;5132302;28;20050;-76
2021/10/09 04:15:33;;;;;;;14.10;5.28;;;;;;;5.26;64.51;101376.97;5132882;27;20123;-74
2021/10/09 04:18:03;;;;;;;13.48;5.28;;;;;;;5.25;64.79;101378.75;5136767;27;20047;-74
2021/10/09 04:20:36;;;;;;;13.73;5.43;;;;;;;5.18;64.77;101374.50;5136693;27;20043;-74
2021/10/09 04:23:04;;;;;;;13.25;5.70;;;;;;;5.09;65.05;101370.25;5136435;27;20054;-77
2021/10/09 04:25:32;;;;;;;17.38;5.78;;;;;;;5.18;63.53;101367.41;5136684;27;20095;-71
2021/10/09 04:28:01;;;;;;;10.30;5.30;;;;;;;5.12;64.76;101370.22;5136789;27;20074;-72
2021/10/09 04:30:29;;;;;;;10.75;5.32;;;;;;;4.99;64.48;101379.25;5136151;27;20075;-72
2021/10/09 04:32:57;;;;;;;12.02;4.95;;;;;;;5.03;64.20;101375.69;5135211;27;20055;-73
2021/10/09 04:35:27;;;;;;;16.63;5.68;;;;;;;5.00;64.32;101380.13;5136344;27;20492;-73
2021/10/09 04:37:55;;;;;;;10.75;5.32;;;;;;;5.21;63.64;101373.53;5136511;27;20087;-72
2021/10/09 04:40:23;;;;;;;17.73;5.82;;;;;;;5.13;63.89;101376.38;5136005;27;20043;-75
2021/10/09 04:42:52;;;;;;;12.18;5.43;;;;;;;4.91;64.97;101375.03;5136324;27;20117;-74
2021/10/09 04:45:20;;;;;;;15.23;6.03;;;;;;;4.91;65.15;101386.47;5135792;27;20043;-73
2021/10/09 04:47:48;;;;;;;13.63;5.13;;;;;;;5.12;64.98;101380.78;5136343;27;20050;-72
2021/10/09 04:50:17;;;;;;;11.25;5.50;;;;;;;5.01;65.20;101384.53;5135835;27;20067;-74
2021/10/09 04:52:46;;;;;;;19.45;5.68;;;;;;;5.03;65.31;101380.97;5136246;27;20091;-74
2021/10/09 04:55:15;;;;;;;16.25;5.55;;;;;;;4.98;66.18;101384.59;5135839;27;20399;-73
2021/10/09 04:57:43;;;;;;;12.65;5.88;;;;;;;4.78;67.15;101390.25;5136144;27;20063;-75
2021/10/09 05:00:12;;;;;;;17.33;5.57;;;;;;;4.63;67.69;101393.16;5135774;27;20087;-74
2021/10/09 05:02:41;;;;;;;14.73;5.72;;;;;;;4.55;68.41;101396.81;5136065;27;20039;-73
2021/10/09 05:05:09;;;;;;;16.10;5.82;;;;;;;4.55;68.82;101388.03;5135644;27;20114;-78
2021/10/09 05:07:38;;;;;;;18.50;6.40;;;;;;;4.66;69.16;101390.47;5136033;27;20047;-72
2021/10/09 05:10:09;;;;;;;19.88;6.00;;;;;;;4.63;69.03;101396.66;5138412;27;20115;-70
2021/10/09 05:12:57;;;;;;;18.02;6.13;;;;;;;4.68;68.80;101399.25;5135650;27;20543;-71
2021/10/09 05:15:26;;;;;;;15.15;5.65;;;;;;;4.85;67.07;101405.09;5134995;27;20051;-72
2021/10/09 05:17:54;;;;;;;15.35;6.35;;;;;;;4.71;67.34;101405.34;5135275;27;20115;-72
2021/10/09 05:20:22;;;;;;;13.77;6.15;;;;;;;4.66;67.70;101404.56;5135394;27;20054;-76
2021/10/09 05:22:50;;;;;;;16.17;6.30;;;;;;;4.70;67.98;101408.88;5135647;27;20043;-71
2021/10/09 05:25:20;;;;;;;12.35;6.18;;;;;;;4.70;66.71;101408.00;5135398;27;20043;-71
2021/10/09 05:27:54;;;;;;;16.23;6.50;;;;;;;4.79;68.54;101413.13;5134550;27;20095;-72
2021/10/09 05:30:22;;;;;;;17.55;6.53;;;;;;;4.94;68.34;101418.16;5134610;27;20043;-71
2021/10/09 05:33:10;;;;;;;17.77;6.20;;;;;;;4.95;68.53;101411.97;5135696;27;20086;-72
2021/10/09 05:35:38;;;;;;;14.55;6.60;;;;;;;5.12;67.52;101415.19;5135269;27;20049;-72
2021/10/09 05:38:07;;;;;;;14.20;6.18;;;;;;;4.97;68.42;101417.22;5135130;27;20050;-72
2021/10/09 05:40:38;;;;;;;14.35;6.45;;;;;;;5.06;67.97;101419.69;5134745;27;20056;-70
2021/10/09 05:43:06;;;;;;;20.33;7.00;;;;;;;5.04;68.82;101419.72;5134438;27;20047;-70
2021/10/09 05:45:34;;;;;;;16.83;6.80;;;;;;;5.15;68.62;101417.75;5134298;27;20042;-72
2021/10/09 05:48:03;;;;;;;14.68;6.75;;;;;;;5.46;65.66;101419.78;5134526;27;20063;-71
2021/10/09 05:50:38;;;;;;;14.55;5.60;;;;;;;5.40;64.99;101423.44;5134290;27;20051;-69
2021/10/09 05:53:15;;;;;;;15.48;6.63;;;;;;;5.64;65.79;101424.69;5134337;27;20031;-71
2021/10/09 05:55:51;;;;;;;15.38;6.13;;;;;;;5.83;62.40;101421.66;5133047;27;20051;-68
2021/10/09 05:58:24;;;;;;;16.42;5.47;;;;;;;5.96;61.80;101424.00;5133874;27;20039;-68
2021/10/09 06:42:44;;;;;;;11.73;4.70;;;;;;;7.04;55.91;101444.31;5133633;27;20123;-69
2021/10/09 06:45:26;;;;;;;13.85;5.10;;;;;;;7.05;55.48;101439.91;5132495;27;20059;-68
2021/10/09 06:48:05;;;;;;;10.50;5.20;;;;;;;7.12;55.56;101442.34;5133961;27;20039;-68
2021/10/09 06:51:08;;;;;;;13.27;4.93;;;;;;;7.27;54.83;101449.03;5133383;27;20116;-69
2021/10/09 07:01:53;;;;;;;16.90;5.38;;;;;;;7.51;54.88;101444.78;5133623;27;20044;-69
2021/10/09 07:04:21;;;;;;;11.00;4.93;;;;;;;7.68;55.19;101442.53;5133875;27;20039;-69
2021/10/09 07:06:52;;;;;;;13.23;5.22;;;;;;;7.73;54.22;101439.75;5133659;27;20472;-68
2021/10/09 07:09:20;;;;;;;12.35;5.10;;;;;;;7.91;53.86;101440.97;5133409;27;20138;-69
2021/10/09 07:11:48;;;;;;;11.18;4.63;;;;;;;8.10;50.99;101434.16;5133351;27;20104;-69
2021/10/09 07:14:18;;;;;;;12.73;4.75;;;;;;;8.33;49.61;101444.09;5133246;27;20122;-71
2021/10/09 07:16:46;;;;;;;10.52;4.35;;;;;;;8.48;47.76;101440.94;5133030;27;20065;-69
2021/10/09 07:19:16;;;;;;;15.18;4.57;;;;;;;8.60;48.73;101437.91;5133514;27;20144;-68
2021/10/09 07:21:44;;;;;;;11.82;4.38;;;;;;;8.67;47.91;101451.84;5133309;27;20047;-68
2021/10/09 07:24:32;;;;;;;13.10;4.47;;;;;;;8.76;48.32;101442.69;5132484;27;20064;-68
2021/10/09 07:27:00;;;;;;;10.30;4.07;;;;;;;8.89;46.61;101441.38;5132676;27;20050;-68
2021/10/09 07:29:30;;;;;;;12.10;5.03;;;;;;;9.02;47.17;101463.97;5132566;27;20040;-69
2021/10/09 07:31:59;;;;;;;9.43;4.13;;;;;;;9.09;44.67;101438.91;5133209;27;20062;-68
2021/10/09 07:34:29;;;;;;;7.78;3.80;;;;;;;9.24;44.31;101448.13;5132396;27;20107;-69
2021/10/09 07:36:57;;;;;;;11.82;3.83;;;;;;;9.26;43.31;101438.28;5133324;27;20050;-68
2021/10/09 07:39:25;;;;;;;10.48;3.90;;;;;;;9.33;43.03;101446.91;5132661;27;20035;-69
2021/10/09 07:41:54;;;;;;;9.82;3.50;;;;;;;9.39;43.01;101441.38;5132772;27;20043;-68
2021/10/09 07:44:23;;;;;;;10.30;3.85;;;;;;;9.40;42.98;101446.66;5132774;27;20392;-69
2021/10/09 07:46:51;;;;;;;9.30;3.50;;;;;;;9.41;42.97;101444.84;5131567;27;20051;-68
2021/10/09 07:49:20;;;;;;;10.13;3.60;;;;;;;9.48;43.06;101446.38;5132873;27;20088;-68
2021/10/09 07:51:50;;;;;;;10.10;4.13;;;;;;;9.55;43.27;101458.50;5132527;27;20131;-68
2021/10/09 07:54:18;;;;;;;10.07;4.00;;;;;;;9.62;42.59;101451.19;5132509;27;20054;-69
2021/10/09 07:56:46;;;;;;;8.73;3.47;;;;;;;9.71;42.34;101464.16;5132907;27;20110;-68
2021/10/09 07:59:14;;;;;;;9.25;3.95;;;;;;;9.75;42.13;101448.00;5132790;27;20440;-68
2021/10/09 08:01:43;;;;;;;8.32;3.70;;;;;;;9.73;41.94;101467.63;5132207;27;20047;-68
2021/10/09 08:04:14;;;;;;;9.30;4.25;;;;;;;9.80;42.21;101446.97;5132622;27;20043;-68
2021/10/09 08:06:43;;;;;;;8.15;3.78;;;;;;;9.86;42.37;101449.41;5132176;27;20041;-68
2021/10/09 08:09:13;;;;;;;8.57;4.05;;;;;;;9.98;42.09;101463.13;5132454;27;20508;-68
2021/10/09 08:11:41;;;;;;;8.93;3.55;;;;;;;10.02;41.73;101456.72;5132078;28;20062;-68
2021/10/09 08:14:10;;;;;;;11.63;3.72;;;;;;;10.07;41.61;101448.56;5132714;27;20035;-68
2021/10/09 08:16:43;;;;;;;13.40;4.43;;;;;;;10.09;41.68;101446.69;5132499;27;20394;-68
2021/10/09 08:19:11;;;;;;;8.80;3.60;;;;;;;10.23;41.98;101459.50;5132632;28;20043;-68
2021/10/09 08:21:41;;;;;;;8.57;3.85;;;;;;;10.23;41.08;101448.84;5132347;27;20088;-68
2021/10/09 08:24:19;;;;;;;9.32;3.83;;;;;;;10.33;41.94;101450.25;5132667;27;20092;-68
2021/10/09 08:40:51;;;;;;;12.48;4.07;;;;;;;10.75;40.89;101442.25;5132203;28;20043;-68
2021/10/09 08:43:22;;;;;;;7.63;3.47;;;;;;;10.83;40.97;101441.94;5131705;28;20096;-68
2021/10/09 08:45:50;;;;;;;9.75;3.33;;;;;;;10.89;40.23;101447.88;5131821;27;20089;-68
2021/10/09 08:48:18;;;;;;;9.73;3.90;;;;;;;10.92;40.22;101430.00;5131252;27;20039;-68
2021/10/09 08:50:47;;;;;;;8.77;3.55;;;;;;;11.00;40.23;101438.53;5131335;28;20111;-69
2021/10/09 08:53:15;;;;;;;8.25;3.70;;;;;;;11.04;40.10;101445.50;5131159;27;20088;-68
2021/10/09 08:55:48;;;;;;;8.32;3.88;;;;;;;11.05;39.65;101437.41;5130907;27;20043;-68
2021/10/09 08:58:31;;;;;;;8.77;4.35;;;;;;;11.12;39.54;101427.34;5131689;27;20495;-68
2021/10/09 09:01:08;;;;;;;9.10;3.25;;;;;;;11.14;39.51;101426.34;5131565;27;20487;-69
2021/10/09 09:26:50;;;;;;;8.63;3.40;;;;;;;11.66;36.78;101420.44;5135251;27;20051;-68
2021/10/09 09:35:06;;;;;;;7.82;3.33;;;;;;;11.78;36.13;101411.00;5135013;27;20046;-68
2021/10/09 09:40:24;;;;;;;8.98;3.40;;;;;;;11.76;36.18;101419.06;5134852;27;20040;-69
2021/10/09 09:42:55;;;;;;;6.95;2.70;;;;;;;11.82;36.15;101408.13;5135191;27;20043;-68
2021/10/09 09:45:24;;;;;;;8.18;3.65;;;;;;;11.90;35.95;101411.31;5135038;27;20046;-68
2021/10/09 09:47:56;;;;;;;7.78;3.60;;;;;;;11.88;36.23;101426.56;5134930;27;20039;-69
2021/10/09 09:50:24;;;;;;;10.02;3.45;;;;;;;11.95;36.24;101411.09;5135357;27;20039;-69
2021/10/09 09:52:53;;;;;;;9.77;3.42;;;;;;;11.98;36.42;101424.34;5134604;27;20046;-69
2021/10/09 09:55:23;;;;;;;9.77;3.65;;;;;;;12.04;36.79;101410.66;5134944;27;20104;-68
2021/10/09 09:58:11;;;;;;;8.60;3.65;;;;;;;12.00;35.57;101412.63;5134976;27;20061;-69
2021/10/09 10:00:40;;;;;;;8.32;3.40;;;;;;;12.12;36.58;101410.28;5134622;27;20091;-69
2021/10/09 10:03:11;;;;;;;9.80;3.75;;;;;;;12.10;35.96;101404.16;5134863;27;20047;-69
2021/10/09 10:05:41;;;;;;;;;;;;;;;12.13;35.89;101407.53;5134834;27;20039;-69
2021/10/09 10:08:14;;;;;;;9.02;3.28;;;;;;;12.14;35.38;101405.72;5134696;27;20364;-69
2021/10/09 10:10:42;;;;;;;8.45;3.60;;;;;;;12.19;35.83;101404.59;5132663;27;20393;-69
2021/10/09 10:13:12;;;;;;;8.80;3.65;;;;;;;12.31;36.38;101406.66;5133451;27;20071;-69
2021/10/09 10:15:40;;;;;;;8.00;3.20;;;;;;;12.36;36.45;101402.91;5134051;27;20051;-69
2021/10/09 10:18:12;;;;;;;8.18;3.75;;;;;;;12.48;35.69;101413.00;5134167;27;20140;-69
2021/10/09 10:20:47;;;;;;;;;;;;;;;12.56;35.58;101405.44;5134631;27;20039;-69
2021/10/09 10:23:34;;;;;;;5.97;3.38;;;;;;;12.58;35.82;101404.41;5134235;27;20355;-69
2021/10/09 10:26:26;;;;;;;9.23;3.58;;;;;;;12.69;35.28;101408.34;5133843;27;20039;-69
2021/10/09 10:29:26;;;;;;;8.63;3.65;;;;;;;12.62;35.51;101410.47;5133395;27;20051;-69
2021/10/09 10:32:15;;;;;;;9.25;3.63;;;;;;;12.67;35.40;101403.09;5133577;27;20148;-69
2021/10/09 10:34:47;;;;;;;10.80;3.83;;;;;;;12.64;35.18;101399.69;5134034;27;20074;-69
2021/10/09 10:37:37;;;;;;;10.35;3.63;;;;;;;12.58;34.26;101398.19;5134183;27;20047;-68
2021/10/09 10:40:06;;;;;;;7.68;3.50;;;;;;;12.59;35.12;101384.72;5133777;27;20062;-68
2021/10/09 10:42:35;;;;;;;6.30;3.20;;;;;;;12.72;34.63;101394.81;5131932;27;20461;-71
2021/10/09 10:45:09;;;;;;;10.68;3.47;;;;;;;12.82;34.35;101394.25;5133671;27;20039;-69
2021/10/09 10:47:45;;;;;;;12.60;3.85;;;;;;;12.97;34.39;101392.63;5133176;27;20084;-68
2021/10/09 10:54:09;;;;;;;8.38;3.60;;;;;;;12.83;33.73;101389.75;5133101;27;20438;-69
2021/10/09 10:56:58;;;;;;;6.03;3.20;;;;;;;12.82;33.93;101393.41;5133234;27;20047;-67
2021/10/09 10:59:28;;;;;;;11.27;3.65;;;;;;;12.88;33.97;101385.06;5133581;27;20130;-68
2021/10/09 11:02:10;;;;;;;7.55;3.35;;;;;;;12.92;33.81;101391.97;5133259;27;20547;-68
2021/10/09 11:04:41;;;;;;;6.95;3.40;;;;;;;12.93;33.90;101388.34;5132327;27;20051;-69
2021/10/09 11:07:12;;;;;;;7.35;3.30;;;;;;;12.97;33.27;101389.94;5133738;27;20047;-69
2021/10/09 11:09:41;;;;;;;11.20;3.67;;;;;;;12.97;33.93;101383.72;5133267;27;20546;-69
2021/10/09 11:12:24;;;;;;;8.13;3.70;;;;;;;13.07;34.12;101377.78;5133459;27;20050;-69
2021/10/09 11:15:01;;;;;;;9.67;3.10;;;;;;;13.10;33.57;101377.63;5133469;27;20084;-69
2021/10/09 11:17:33;;;;;;;8.32;3.30;;;;;;;13.08;33.59;101379.53;5133510;27;20354;-69
2021/10/09 11:20:02;;;;;;;7.30;3.33;;;;;;;13.12;33.30;101369.50;5133233;27;20047;-69
2021/10/09 11:22:46;;;;;;;12.65;3.40;;;;;;;13.10;33.49;101369.59;5133182;27;20074;-69
2021/10/09 11:25:36;;;;;;;9.32;3.25;;;;;;;13.08;33.91;101374.16;5133280;27;20039;-69
2021/10/09 11:28:07;;;;;;;10.18;3.47;;;;;;;12.98;33.15;101372.91;5128411;27;20417;-68
2021/10/09 11:30:37;;;;;;;7.60;3.00;;;;;;;13.08;33.65;101371.47;5133029;27;20135;-68
2021/10/09 11:33:05;;;;;;;9.27;3.15;;;;;;;13.10;33.43;101368.72;5132887;27;20039;-70
2021/10/09 11:35:36;;;;;;;7.75;3.20;;;;;;;13.05;33.34;101371.66;5132910;27;20046;-69
2021/10/09 11:38:18;;;;;;;7.45;3.13;;;;;;;13.04;33.61;101380.63;5132863;27;20045;-68
2021/10/09 11:40:50;;;;;;;9.05;3.75;;;;;;;12.99;33.33;101379.13;5131807;27;20047;-67
2021/10/09 11:43:25;;;;;;;9.90;3.30;;;;;;;12.94;32.72;101368.69;5133150;27;20096;-67
2021/10/09 11:46:01;;;;;;;6.47;3.50;;;;;;;13.05;32.73;101366.31;5132562;27;20047;-69
2021/10/09 11:54:08;;;;;;;7.07;3.58;;;;;;;13.06;32.23;101361.81;5132421;27;20055;-69
2021/10/09 11:56:44;;;;;;;7.00;3.63;;;;;;;12.99;32.00;101366.63;5132775;27;20047;-69
2021/10/09 11:59:14;;;;;;;6.72;3.05;;;;;;;13.01;32.46;101379.91;5132603;27;20043;-69
2021/10/09 12:01:44;;;;;;;6.18;3.30;;;;;;;13.05;32.55;101368.97;5132192;27;20183;-69
2021/10/09 12:04:14;;;;;;;8.90;3.83;;;;;;;13.00;31.73;101362.13;5132186;27;20122;-68
2021/10/09 12:06:44;;;;;;;10.15;3.95;;;;;;;13.04;32.32;101361.91;5131546;27;20043;-69
2021/10/09 12:09:16;;;;;;;11.60;3.80;;;;;;;13.12;31.85;101358.78;5131986;27;20043;-68
2021/10/09 12:11:44;;;;;;;12.02;4.13;;;;;;;13.16;31.75;101355.88;5131821;27;20067;-69
2021/10/09 12:14:13;;;;;;;7.63;3.28;;;;;;;13.24;32.02;101360.88;5131977;28;20397;-69
2021/10/09 12:16:44;;;;;;;8.73;3.90;;;;;;;13.22;32.21;101348.47;5131468;28;20119;-70
2021/10/09 12:19:16;;;;;;;11.90;4.40;;;;;;;13.22;32.48;101356.50;5131948;27;20426;-69
2021/10/09 12:22:00;;;;;;;9.75;3.67;;;;;;;13.26;32.86;101355.41;5130533;28;20073;-69
2021/10/09 12:24:31;;;;;;;9.35;3.60;;;;;;;13.32;32.81;101347.91;5132011;28;20043;-69
2021/10/09 12:27:00;;;;;;;9.27;3.47;;;;;;;13.26;32.37;101350.91;5131683;28;20047;-68
2021/10/09 12:29:29;;;;;;;9.50;3.88;;;;;;;13.25;32.55;101349.19;5131668;28;20055;-69
2021/10/09 12:32:13;;;;;;;8.27;3.83;;;;;;;13.29;31.88;101339.16;5131530;28;20131;-69
2021/10/09 12:34:42;;;;;;;9.70;4.00;;;;;;;13.34;32.41;101350.50;5132174;27;20134;-68
2021/10/09 12:37:23;;;;;;;10.93;3.65;;;;;;;13.21;32.28;101344.94;5133743;27;20104;-69
2021/10/09 12:40:12;;;;;;;10.73;3.40;;;;;;;13.31;32.15;101337.25;5135945;27;20357;-69
2021/10/09 12:42:46;;;;;;;13.63;4.40;;;;;;;13.28;32.28;101340.13;5136259;27;20043;-69
2021/10/09 12:45:14;;;;;;;7.40;3.75;;;;;;;13.26;32.34;101333.97;5136515;27;20074;-68
2021/10/09 12:47:55;;;;;;;9.82;3.92;;;;;;;13.26;32.86;101340.22;5136039;27;20067;-69
2021/10/09 12:50:24;;;;;;;9.32;3.45;;;;;;;13.34;32.32;101343.34;5136048;27;20047;-68
2021/10/09 12:52:53;;;;;;;7.68;3.47;;;;;;;13.35;32.19;101333.47;5135953;27;20054;-68
2021/10/09 12:55:26;;;;;;;8.32;4.50;;;;;;;13.43;32.06;101344.66;5134561;27;20059;-67
2021/10/09 12:57:57;;;;;;;11.83;4.60;;;;;;;13.46;32.46;101339.97;5135682;27;20436;-69
2021/10/09 13:00:26;;;;;;;8.70;4.32;;;;;;;13.35;32.50;101341.53;5136122;27;20039;-68
2021/10/09 13:02:57;;;;;;;12.88;5.10;;;;;;;13.34;32.89;101337.13;5135919;27;20047;-69
2021/10/09 13:05:29;;;;;;;11.52;4.72;;;;;;;13.45;32.83;101338.25;5136343;27;20047;-68
2021/10/09 13:07:59;;;;;;;9.43;3.90;;;;;;;13.54;31.81;101342.25;5135526;27;20118;-68
2021/10/09 13:10:33;;;;;;;13.88;3.72;;;;;;;13.38;31.78;101330.63;5135865;27;20039;-69
2021/10/09 13:13:02;;;;;;;7.55;4.07;;;;;;;13.37;32.58;101340.47;5135504;27;20043;-69
2021/10/09 13:15:30;;;;;;;8.52;3.67;;;;;;;13.36;32.06;101343.25;5135851;27;20039;-69
2021/10/09 13:17:58;;;;;;;19.50;4.82;;;;;;;13.34;32.21;101337.13;5135171;27;20048;-69
2021/10/09 13:20:32;;;;;;;25.98;6.47;;;;;;;13.35;32.60;101337.03;5135533;27;20043;-69
2021/10/09 13:23:03;;;;;;;10.95;4.15;;;;;;;13.38;32.05;101330.63;5135125;27;20476;-69
2021/10/09 13:25:40;;;;;;;18.75;4.35;;;;;;;13.29;32.12;101336.47;5135341;27;20390;-69
2021/10/09 13:28:09;;;;;;;15.38;4.30;;;;;;;13.29;32.14;101320.41;5135411;27;20050;-69
2021/10/09 13:30:37;;;;;;;8.93;4.05;;;;;;;13.33;32.67;101328.22;5135238;27;20053;-69
2021/10/09 13:33:06;;;;;;;11.63;4.43;;;;;;;13.29;32.50;101325.78;5094480;28;20040;-68
2021/10/09 13:35:36;;;;;;;8.82;4.07;;;;;;;13.29;32.71;101323.09;5094162;28;20495;-69
2021/10/09 13:38:04;;;;;;;9.20;4.18;;;;;;;13.36;32.32;101324.50;5093824;28;20411;-69